CheckWX is a tool to help pilots better visualize weather data.  It is not intended as a substitute for an official pre-flight weather briefing.

05:58:24 UTC

KHPN TAF
Westchester County Airport
White Plains, New York, USA
KHPN 080530Z 0806/0906 VRB03KT P6SM FEW250 FM081400 18006KT P6SM SCT250 FM081700 20007G15KT P6SM SCT250 FM082300 22015KT 6SM BR BKN060 FM090400 20004KT 5SM BR BKN050 AMD NOT SKED

Dec-8@
06:00 UTC

Dec-8 @ 06:00 UTC

Dec-8@
14:00 UTC

Dec-8 @ 14:00 UTC

KHPN 080530Z 0806/0906 VRB03KT P6SM FEW250
Wind
  • Variable at 3 KTS
Cloud Levels
  • Few at 25,000' AGL

Dec-8@
14:00 UTC

Dec-8 @ 14:00 UTC

Dec-8@
17:00 UTC

Dec-8 @ 17:00 UTC

FM081400 18006KT P6SM SCT250

From

From Standard forecast or significant change

Wind
  • 180° at 6 KTS
Cloud Levels
  • Scattered at 25,000' AGL

Dec-8@
17:00 UTC

Dec-8 @ 17:00 UTC

Dec-8@
23:00 UTC

Dec-8 @ 23:00 UTC

FM081700 20007G15KT P6SM SCT250

From

From Standard forecast or significant change

Wind
  • 200° at 7 KTS
  • {Gusting to 15 KTS
Cloud Levels
  • Scattered at 25,000' AGL

Dec-8@
23:00 UTC

Dec-8 @ 23:00 UTC

Dec-9@
04:00 UTC

Dec-9 @ 04:00 UTC

FM082300 22015KT 6SM BR BKN060

From

From Standard forecast or significant change

Wind
  • 220° at 15 KTS
Conditions
Mist
Cloud Levels
  • Broken at 6,000' AGL

Dec-9@
04:00 UTC

Dec-9 @ 04:00 UTC

Dec-9@
06:00 UTC

Dec-9 @ 06:00 UTC

FM090400 20004KT 5SM BR BKN050 AMD NOT SKED

From

From Standard forecast or significant change

Wind
  • 200° at 4 KTS
Conditions
Mist
Cloud Levels
  • Broken at 5,000' AGL